Time;durP1;ratioP1;P1;durP2;ratioP2;P2;SDS_P1;SDS_P2;PMS_P1;PMS_P2;Temp;Humidity;BMP_temperature;BMP_pressure;BME280_temperature;BME280_humidity;BME280_pressure;Samples;Min_cycle;Max_cycle;Signal;HPM_P1;HPM_P2
2021/07/19 00:01:44;;;;;;;4.03;1.65;;;;;;;28.63;38.83;96948.59;5003098;28;20040;-31
2021/07/19 00:04:10;;;;;;;2.78;1.60;;;;;;;28.60;38.89;96952.25;5004582;28;20120;-31
2021/07/19 00:06:35;;;;;;;5.10;2.45;;;;;;;28.59;39.02;96952.34;5002682;28;20033;-31
2021/07/19 00:09:00;;;;;;;3.25;1.67;;;;;;;28.59;38.99;96942.66;5010012;28;20041;-31
2021/07/19 00:11:26;;;;;;;6.03;2.00;;;;;;;28.59;39.20;96947.06;5006961;28;20037;-31
2021/07/19 00:13:51;;;;;;;2.92;1.73;;;;;;;28.58;38.93;96943.63;5005155;28;20038;-32
2021/07/19 00:16:17;;;;;;;3.20;1.95;;;;;;;28.59;39.04;96939.16;5002957;28;20032;-34
2021/07/19 00:18:42;;;;;;;5.63;1.67;;;;;;;28.59;39.03;96947.94;5001992;28;20021;-30
2021/07/19 00:21:07;;;;;;;3.78;1.60;;;;;;;28.60;38.90;96935.63;5006230;28;20033;-34
2021/07/19 00:23:33;;;;;;;5.22;1.90;;;;;;;28.60;38.90;96939.06;5007630;28;20047;-32
2021/07/19 00:25:58;;;;;;;2.28;1.60;;;;;;;28.61;38.85;96943.44;5007703;28;20030;-31
2021/07/19 00:28:24;;;;;;;5.00;1.80;;;;;;;28.61;38.87;96946.06;5018874;28;20103;-31
2021/07/19 00:30:49;;;;;;;6.07;1.90;;;;;;;28.61;38.75;96948.72;5008986;28;20356;-33
2021/07/19 00:33:15;;;;;;;3.20;1.77;;;;;;;28.61;38.83;96951.34;5022944;28;20494;-33
2021/07/19 00:35:40;;;;;;;2.60;1.80;;;;;;;28.62;38.67;96941.63;5004485;28;20071;-32
2021/07/19 00:38:06;;;;;;;3.25;1.65;;;;;;;28.62;38.66;96947.75;5006234;28;20025;-31
2021/07/19 00:40:31;;;;;;;2.95;1.70;;;;;;;28.62;38.79;96945.13;5003572;28;20628;-36
2021/07/19 00:42:57;;;;;;;2.45;1.50;;;;;;;28.62;38.86;96945.13;5005807;28;20033;-32
2021/07/19 00:45:25;;;;;;;3.20;1.60;;;;;;;28.64;38.70;96947.66;5007366;28;20029;-31
2021/07/19 00:47:51;;;;;;;3.13;1.60;;;;;;;28.63;38.83;96946.81;5006590;28;20037;-31
2021/07/19 00:50:17;;;;;;;4.95;1.40;;;;;;;28.64;38.87;96945.03;5002242;28;20112;-31
2021/07/19 00:52:42;;;;;;;6.07;1.67;;;;;;;28.63;38.71;96938.91;5004988;28;20048;-32
2021/07/19 00:55:11;;;;;;;1.77;1.48;;;;;;;28.63;38.77;96936.25;5006635;28;20026;-29
2021/07/19 00:57:38;;;;;;;2.92;1.35;;;;;;;28.64;38.69;96937.94;5006632;28;20830;-30
2021/07/19 01:00:12;;;;;;;2.53;1.35;;;;;;;28.64;38.84;96934.47;5008252;28;20033;-33
2021/07/19 01:02:40;;;;;;;6.25;1.55;;;;;;;28.64;38.99;96930.03;5007479;28;20764;-31
2021/07/19 01:05:06;;;;;;;4.63;1.60;;;;;;;28.65;38.55;96934.34;4998231;28;20128;-32
2021/07/19 01:07:32;;;;;;;1.77;1.55;;;;;;;28.64;38.97;96930.03;5005380;28;20559;-31
2021/07/19 01:09:57;;;;;;;3.58;1.40;;;;;;;28.65;38.87;96926.44;5006493;28;20022;-28
2021/07/19 01:12:23;;;;;;;3.28;1.50;;;;;;;28.66;38.89;96936.06;5003907;28;20029;-32
2021/07/19 01:14:48;;;;;;;3.60;1.70;;;;;;;28.66;38.78;96933.44;4990207;28;20034;-31
2021/07/19 01:17:14;;;;;;;3.60;1.60;;;;;;;28.65;38.79;96926.44;5005797;28;20030;-30
2021/07/19 01:19:39;;;;;;;3.80;1.85;;;;;;;28.66;38.71;96925.53;5000120;28;20392;-33
2021/07/19 01:22:11;;;;;;;2.88;1.55;;;;;;;28.66;39.02;96922.88;4988244;28;20033;-31
2021/07/19 01:25:06;;;;;;;1.67;1.45;;;;;;;28.67;38.75;96924.56;5005309;28;20093;-31
2021/07/19 01:27:46;;;;;;;2.60;1.60;;;;;;;28.66;38.72;96933.44;4991393;28;20038;-31
2021/07/19 01:30:11;;;;;;;2.55;1.52;;;;;;;28.66;38.88;96932.56;5005939;28;20630;-31
2021/07/19 01:32:39;;;;;;;2.85;1.65;;;;;;;28.65;38.67;96921.16;5001377;28;20037;-30
2021/07/19 01:35:05;;;;;;;3.42;1.15;;;;;;;28.65;38.55;96918.53;5004733;28;20029;-30
2021/07/19 01:37:31;;;;;;;3.17;1.52;;;;;;;28.64;38.63;96930.03;4987521;28;20033;-30
2021/07/19 01:39:56;;;;;;;2.13;1.50;;;;;;;28.64;38.54;96919.50;5019337;28;20029;-34
2021/07/19 01:42:21;;;;;;;2.28;1.40;;;;;;;28.64;38.48;96930.03;4989347;28;20025;-32
2021/07/19 01:44:47;;;;;;;3.60;1.55;;;;;;;28.65;38.60;96923.81;5008773;28;20512;-30
2021/07/19 01:47:12;;;;;;;2.58;1.48;;;;;;;28.63;38.66;96917.81;5002507;28;20029;-30
2021/07/19 01:49:38;;;;;;;1.83;1.40;;;;;;;28.64;38.58;96911.56;5001234;28;20076;-32
2021/07/19 01:52:04;;;;;;;1.70;1.30;;;;;;;28.63;38.55;96909.88;4992677;28;20036;-31
2021/07/19 01:54:29;;;;;;;2.80;1.70;;;;;;;28.64;38.66;96916.84;5005233;28;20029;-32
2021/07/19 01:56:55;;;;;;;1.83;1.20;;;;;;;28.64;38.54;96918.66;5005345;28;20451;-32
2021/07/19 01:59:20;;;;;;;1.33;1.05;;;;;;;28.63;38.50;96917.81;5001764;28;20033;-32
2021/07/19 02:01:45;;;;;;;2.15;1.52;;;;;;;28.63;38.37;96920.44;4975917;28;20563;-30
2021/07/19 02:04:11;;;;;;;4.80;1.73;;;;;;;28.63;38.54;96920.44;5010849;28;20087;-31
2021/07/19 02:06:38;;;;;;;3.55;1.45;;;;;;;28.63;38.33;96917.81;5002432;28;20483;-30
2021/07/19 02:09:06;;;;;;;4.13;1.45;;;;;;;28.63;38.74;96917.81;5011231;28;20041;-33
2021/07/19 02:11:31;;;;;;;13.02;1.80;;;;;;;28.63;38.53;96923.06;5008583;28;20041;-34
2021/07/19 02:13:57;;;;;;;10.32;1.80;;;;;;;28.63;38.82;96933.63;4988742;28;20033;-32
2021/07/19 02:16:22;;;;;;;4.93;1.90;;;;;;;28.64;38.60;96930.03;5003035;28;20756;-30
2021/07/19 02:18:48;;;;;;;2.38;1.50;;;;;;;28.64;38.80;96927.41;5006546;28;20021;-33
2021/07/19 02:21:13;;;;;;;3.78;1.40;;;;;;;28.63;38.57;96923.06;4991693;28;20033;-32
2021/07/19 02:23:38;;;;;;;3.38;1.38;;;;;;;28.64;38.54;96924.75;5009005;28;20048;-30
2021/07/19 02:26:04;;;;;;;4.97;1.55;;;;;;;28.64;38.44;96930.03;5004090;28;20036;-33
2021/07/19 02:28:30;;;;;;;5.70;1.70;;;;;;;28.63;38.51;96933.63;5008423;28;20068;-36
2021/07/19 02:30:55;;;;;;;2.53;1.63;;;;;;;28.64;38.44;96930.03;4988726;28;20092;-30
2021/07/19 02:33:21;;;;;;;3.08;1.90;;;;;;;28.64;38.58;96929.22;4990316;28;20035;-33
2021/07/19 02:35:50;;;;;;;6.10;1.38;;;;;;;28.64;38.46;96929.22;5008330;28;20044;-32
2021/07/19 02:38:15;;;;;;;15.73;1.60;;;;;;;28.66;38.26;96932.56;4994355;28;20087;-31
2021/07/19 02:40:41;;;;;;;2.85;1.40;;;;;;;28.63;38.51;96923.06;5007062;28;20041;-29
2021/07/19 02:43:07;;;;;;;4.00;1.77;;;;;;;28.64;38.42;96927.41;4983743;28;20030;-44
2021/07/19 02:45:35;;;;;;;3.38;1.50;;;;;;;28.64;38.35;96921.28;5005390;28;20048;-31
2021/07/19 02:48:01;;;;;;;5.97;1.55;;;;;;;28.64;38.37;96918.66;5000926;28;20025;-31
2021/07/19 02:50:26;;;;;;;3.15;1.45;;;;;;;28.64;38.44;96924.75;5006074;28;20031;-31
2021/07/19 02:52:52;;;;;;;5.18;1.77;;;;;;;28.64;38.46;96919.50;5008049;28;20079;-31
2021/07/19 02:55:18;;;;;;;1.60;1.30;;;;;;;28.68;38.09;96922.78;5007077;28;20057;-31
2021/07/19 02:57:44;;;;;;;10.18;1.60;;;;;;;28.66;38.37;96922.03;4988656;28;20487;-31
2021/07/19 03:00:14;;;;;;;3.13;1.33;;;;;;;28.61;38.29;96914.44;5010956;28;20025;-31
2021/07/19 03:02:51;;;;;;;3.13;1.55;;;;;;;28.64;38.19;96926.56;5016617;28;20025;-32
2021/07/19 03:05:17;;;;;;;6.63;1.75;;;;;;;28.65;38.53;96929.09;5005828;28;20036;-31
2021/07/19 03:07:44;;;;;;;6.50;1.58;;;;;;;28.64;38.43;96922.13;5005061;28;20061;-30
2021/07/19 03:10:10;;;;;;;5.43;1.70;;;;;;;28.64;38.38;96923.94;5005453;28;20029;-31
2021/07/19 03:12:36;;;;;;;3.53;1.63;;;;;;;28.63;38.31;96920.44;5007029;28;20052;-32
2021/07/19 03:15:02;;;;;;;2.30;1.60;;;;;;;28.63;38.19;96920.44;5007842;28;20646;-31
2021/07/19 03:17:27;;;;;;;4.15;1.35;;;;;;;28.63;38.08;96920.44;5001441;28;20056;-31
2021/07/19 03:19:53;;;;;;;3.83;1.50;;;;;;;28.63;38.32;96922.22;5005244;28;20084;-31
2021/07/19 03:22:19;;;;;;;4.60;1.65;;;;;;;28.62;38.17;96910.84;4991749;28;20133;-31
2021/07/19 03:24:45;;;;;;;3.83;1.52;;;;;;;28.63;38.09;96917.81;4992390;28;20554;-29
2021/07/19 03:27:10;;;;;;;2.63;1.40;;;;;;;28.63;38.25;96911.66;5023515;28;20116;-31
2021/07/19 03:29:36;;;;;;;2.35;1.55;;;;;;;28.62;38.14;96910.84;5021182;28;20030;-34
2021/07/19 03:32:02;;;;;;;2.38;1.55;;;;;;;28.63;38.24;96909.88;5006209;28;20580;-31
2021/07/19 03:34:27;;;;;;;2.13;1.50;;;;;;;28.64;38.32;96910.75;5008121;28;20691;-32
2021/07/19 03:36:53;;;;;;;2.83;1.40;;;;;;;28.62;38.33;96905.56;5004286;28;20113;-31
2021/07/19 03:39:18;;;;;;;2.25;1.52;;;;;;;28.62;38.03;96915.25;4988528;28;20088;-30
2021/07/19 03:41:44;;;;;;;2.80;1.25;;;;;;;28.64;38.15;96910.75;5003149;28;20395;-33
2021/07/19 03:44:10;;;;;;;1.90;1.42;;;;;;;28.62;37.88;96905.56;5005339;28;20041;-32
2021/07/19 03:46:35;;;;;;;2.72;1.30;;;;;;;28.64;37.97;96910.75;5017437;28;20424;-32
2021/07/19 03:49:02;;;;;;;2.67;1.50;;;;;;;28.63;38.25;96907.25;4990337;28;20041;-31
2021/07/19 03:51:28;;;;;;;2.55;1.23;;;;;;;28.63;38.00;96909.03;5022669;28;20598;-30
2021/07/19 03:53:53;;;;;;;2.22;1.17;;;;;;;28.63;38.17;96912.53;4994748;28;20061;-33
2021/07/19 03:56:19;;;;;;;2.15;1.40;;;;;;;28.62;38.20;96905.56;5000134;28;20037;-31
2021/07/19 03:58:44;;;;;;;3.00;1.30;;;;;;;28.63;38.20;96912.53;5002542;28;20021;-30
2021/07/19 04:01:10;;;;;;;2.72;1.42;;;;;;;28.62;38.18;96916.13;5008097;28;20030;-30
2021/07/19 04:03:46;;;;;;;1.88;1.15;;;;;;;28.63;38.14;96915.16;4987295;28;20025;-29
2021/07/19 04:06:18;;;;;;;5.85;1.67;;;;;;;28.62;38.06;96910.84;5005426;28;20049;-30
2021/07/19 04:08:43;;;;;;;3.15;1.27;;;;;;;28.62;38.17;96910.84;5021256;28;20664;-31
2021/07/19 04:11:09;;;;;;;5.32;1.45;;;;;;;28.63;38.16;96911.66;5005431;28;20038;-30
2021/07/19 04:13:36;;;;;;;2.85;1.50;;;;;;;28.64;38.12;96910.75;5005203;28;20446;-38
2021/07/19 04:16:02;;;;;;;3.85;1.20;;;;;;;28.62;38.08;96910.84;5004451;28;20478;-30
2021/07/19 04:18:27;;;;;;;6.45;1.40;;;;;;;28.62;38.06;96916.13;5002941;28;20021;-31
2021/07/19 04:20:53;;;;;;;2.63;1.33;;;;;;;28.63;38.29;96915.16;5006078;28;20209;-30
2021/07/19 04:23:19;;;;;;;2.38;1.50;;;;;;;28.63;38.18;96919.56;5003486;28;20034;-32
2021/07/19 04:25:45;;;;;;;4.13;1.52;;;;;;;28.62;38.19;96918.75;4986782;28;20030;-32
2021/07/19 04:28:13;;;;;;;3.70;1.50;;;;;;;28.62;37.79;96916.13;5006138;28;20032;-30
2021/07/19 04:30:38;;;;;;;5.75;1.50;;;;;;;28.62;37.85;96909.97;4988498;28;21115;-32
2021/07/19 04:33:04;;;;;;;2.50;1.40;;;;;;;28.62;37.83;96916.13;5006984;28;20119;-32
2021/07/19 04:35:29;;;;;;;1.48;1.30;;;;;;;28.61;37.94;96919.69;5005035;28;20059;-35
2021/07/19 04:37:55;;;;;;;3.65;1.48;;;;;;;28.61;38.02;96922.34;4985176;28;20047;-30
2021/07/19 04:40:21;;;;;;;3.75;1.40;;;;;;;28.62;37.85;96924.03;5004155;28;20022;-30
2021/07/19 04:42:47;;;;;;;3.20;1.30;;;;;;;28.61;38.11;96914.44;5006226;28;20090;-31
2021/07/19 04:45:16;;;;;;;5.32;1.40;;;;;;;28.61;38.08;96924.97;5007592;28;20910;-31
2021/07/19 04:47:42;;;;;;;1.98;1.48;;;;;;;28.61;38.05;96914.44;5005944;28;20156;-32
2021/07/19 04:50:07;;;;;;;1.77;1.42;;;;;;;28.60;38.13;96917.97;5002586;28;20081;-30
2021/07/19 04:52:33;;;;;;;4.68;1.80;;;;;;;28.60;38.08;96911.88;5008367;28;20029;-31
2021/07/19 04:54:58;;;;;;;1.98;1.35;;;;;;;28.60;38.30;96915.34;5004916;28;20030;-30
2021/07/19 04:57:24;;;;;;;1.60;1.15;;;;;;;28.60;37.98;96917.97;5003051;28;20026;-31
2021/07/19 04:59:50;;;;;;;4.40;1.50;;;;;;;28.61;38.00;96919.69;4990526;28;20029;-31
2021/07/19 05:02:20;;;;;;;2.67;1.30;;;;;;;28.62;38.13;96921.38;4989439;28;20505;-31
2021/07/19 05:04:47;;;;;;;1.50;1.13;;;;;;;28.62;37.98;96924.03;5008613;28;20029;-29
2021/07/19 05:07:13;;;;;;;2.17;1.15;;;;;;;28.62;38.34;96918.75;4987716;28;20688;-30
2021/07/19 05:09:41;;;;;;;2.78;1.50;;;;;;;28.62;38.19;96929.28;5003406;28;20510;-30
2021/07/19 05:12:11;;;;;;;4.35;1.50;;;;;;;28.61;38.14;96918.84;4987693;28;20028;-32
2021/07/19 05:14:38;;;;;;;2.53;1.40;;;;;;;28.62;38.11;96921.38;4989577;28;20556;-30
2021/07/19 05:17:03;;;;;;;3.58;1.45;;;;;;;28.62;38.10;96920.53;5007994;28;20511;-30
2021/07/19 05:19:29;;;;;;;4.22;1.55;;;;;;;28.61;38.37;96919.69;5004193;28;20075;-29
2021/07/19 05:21:54;;;;;;;1.52;1.42;;;;;;;28.63;38.35;96925.72;5004565;28;20034;-29
2021/07/19 05:24:31;;;;;;;3.88;1.50;;;;;;;28.63;38.25;96927.50;5002404;28;20657;-29
2021/07/19 05:26:56;;;;;;;3.25;1.42;;;;;;;28.63;38.47;96927.50;5003992;28;20033;-30
2021/07/19 05:29:22;;;;;;;4.97;1.60;;;;;;;28.61;38.42;96918.84;5003667;28;20030;-30
2021/07/19 05:31:47;;;;;;;2.20;1.23;;;;;;;28.62;38.43;96924.03;5007000;28;20033;-31
2021/07/19 05:34:12;;;;;;;4.18;1.63;;;;;;;28.64;38.35;96923.94;5001863;28;20031;-32
2021/07/19 05:36:38;;;;;;;4.47;1.30;;;;;;;28.64;38.53;96929.22;5015127;28;20882;-29
2021/07/19 05:39:03;;;;;;;2.72;1.40;;;;;;;28.63;38.67;96920.44;5001792;28;20025;-30
2021/07/19 05:41:29;;;;;;;5.05;1.35;;;;;;;28.63;38.44;96922.22;5001651;28;20033;-29
2021/07/19 05:43:54;;;;;;;1.52;1.33;;;;;;;28.63;38.55;96923.06;5002930;28;20268;-30
2021/07/19 05:46:19;;;;;;;1.48;1.38;;;;;;;28.64;38.75;96918.66;5002927;28;20641;-31
2021/07/19 05:48:45;;;;;;;2.88;1.30;;;;;;;28.64;38.59;96924.75;4998400;28;20041;-30
2021/07/19 05:51:11;;;;;;;1.33;1.20;;;;;;;28.64;38.73;96919.50;5002354;28;20242;-30
2021/07/19 05:53:36;;;;;;;3.08;1.20;;;;;;;28.64;38.62;96914.22;5008586;28;20072;-31
2021/07/19 05:56:01;;;;;;;2.30;1.10;;;;;;;28.66;38.82;96928.16;5006956;28;20033;-29
2021/07/19 05:58:27;;;;;;;2.42;1.40;;;;;;;28.65;38.72;96926.44;5006308;28;20025;-31
2021/07/19 06:00:52;;;;;;;2.40;1.30;;;;;;;28.66;38.85;96927.31;5004573;28;20022;-29
2021/07/19 06:03:18;;;;;;;2.75;1.50;;;;;;;28.65;38.75;96921.16;5005209;28;20057;-31
2021/07/19 06:05:45;;;;;;;1.92;1.30;;;;;;;28.65;38.90;96921.16;4997351;28;20030;-30
2021/07/19 06:08:11;;;;;;;3.88;1.40;;;;;;;28.64;38.85;96922.13;5002744;28;20040;-29
2021/07/19 06:10:36;;;;;;;1.80;1.30;;;;;;;28.65;39.03;96921.16;4999487;28;20033;-31
2021/07/19 06:13:02;;;;;;;2.67;1.40;;;;;;;28.64;39.01;96919.50;5005050;28;20037;-27
2021/07/19 06:15:27;;;;;;;1.60;1.50;;;;;;;28.64;39.07;96923.94;5003989;28;20036;-32
2021/07/19 06:17:54;;;;;;;3.60;1.50;;;;;;;28.66;38.98;96927.31;5002718;28;20174;-29
2021/07/19 06:20:27;;;;;;;4.13;1.40;;;;;;;28.66;39.14;96922.88;5004223;28;20613;-30
2021/07/19 06:22:53;;;;;;;5.75;1.42;;;;;;;28.65;38.92;96921.16;5005083;28;20029;-29
2021/07/19 06:25:18;;;;;;;3.30;1.50;;;;;;;28.65;38.95;96921.16;4998442;28;20038;-30
2021/07/19 06:27:44;;;;;;;5.65;1.30;;;;;;;28.66;38.96;96927.31;5006221;28;20998;-31
2021/07/19 06:30:10;;;;;;;3.75;1.30;;;;;;;28.66;39.01;96922.88;5003013;28;20029;-30
2021/07/19 06:32:35;;;;;;;6.95;1.60;;;;;;;28.66;38.99;96917.63;5012104;28;20030;-30
2021/07/19 06:35:01;;;;;;;6.25;1.75;;;;;;;28.67;39.19;96923.72;5003832;28;20060;-30
2021/07/19 06:37:27;;;;;;;5.22;1.75;;;;;;;28.68;39.17;96926.25;4998827;28;20040;-31
2021/07/19 06:39:52;;;;;;;8.90;2.25;;;;;;;28.68;38.89;96925.44;5000802;28;20079;-29
2021/07/19 06:42:19;;;;;;;9.93;2.70;;;;;;;28.67;39.11;96915.81;4996007;28;20030;-30
2021/07/19 06:44:46;;;;;;;10.07;3.10;;;;;;;28.63;38.97;96912.53;5005071;28;20025;-30
2021/07/19 06:47:11;;;;;;;5.70;2.60;;;;;;;28.60;38.78;96912.72;4999917;28;20739;-31
2021/07/19 06:49:37;;;;;;;4.18;2.63;;;;;;;28.57;38.87;96918.19;5007459;28;20033;-31
2021/07/19 06:52:02;;;;;;;6.43;3.10;;;;;;;28.54;38.71;96910.47;5011280;28;20033;-28
2021/07/19 06:54:28;;;;;;;6.65;2.80;;;;;;;28.51;38.85;96908.03;5003817;28;20674;-32
2021/07/19 06:56:53;;;;;;;5.53;2.85;;;;;;;28.50;38.74;96912.47;5001749;28;20788;-30
2021/07/19 06:59:19;;;;;;;6.47;2.90;;;;;;;28.49;38.76;96912.56;5005395;28;20512;-30
2021/07/19 07:01:44;;;;;;;7.15;3.30;;;;;;;28.47;38.80;96911.78;4995539;28;20056;-34
2021/07/19 07:04:10;;;;;;;11.30;3.40;;;;;;;28.45;39.02;96903.16;4999675;28;20029;-32
2021/07/19 07:06:35;;;;;;;6.28;3.33;;;;;;;28.45;38.83;96895.25;5003049;28;20033;-30
2021/07/19 07:09:01;;;;;;;5.63;3.20;;;;;;;28.43;39.01;96895.31;5017014;28;20029;-30
2021/07/19 07:11:27;;;;;;;5.65;3.30;;;;;;;28.42;38.96;96897.09;5002483;28;20037;-29
2021/07/19 07:13:53;;;;;;;5.22;3.00;;;;;;;28.41;39.13;96897.19;5001229;28;20056;-30
2021/07/19 07:16:19;;;;;;;8.32;3.08;;;;;;;28.38;38.75;96898.25;5000872;28;20037;-31
2021/07/19 07:18:45;;;;;;;7.22;3.17;;;;;;;28.34;38.89;96896.72;4999644;28;20044;-29
2021/07/19 07:21:11;;;;;;;7.63;3.35;;;;;;;28.30;38.88;96898.72;5005943;28;20079;-30
2021/07/19 07:23:36;;;;;;;7.32;2.78;;;;;;;28.28;38.83;96892.72;5001964;28;20033;-29
2021/07/19 07:26:02;;;;;;;7.40;3.03;;;;;;;28.27;38.97;96891.00;5002316;28;20488;-28
2021/07/19 07:28:27;;;;;;;7.13;3.10;;;;;;;28.25;39.07;96892.91;5004502;28;20725;-30
2021/07/19 07:30:52;;;;;;;4.57;3.10;;;;;;;28.24;39.18;96898.22;5001706;28;20049;-29
2021/07/19 07:33:18;;;;;;;6.82;3.05;;;;;;;28.21;39.27;96896.63;5002671;28;20030;-30
2021/07/19 07:35:45;;;;;;;6.03;3.20;;;;;;;28.21;39.39;96895.75;4999514;28;20045;-33
2021/07/19 07:38:11;;;;;;;5.10;3.25;;;;;;;28.17;39.28;96895.97;5002462;28;20100;-29
2021/07/19 07:40:36;;;;;;;7.70;3.30;;;;;;;28.17;39.45;96889.84;5000924;28;20044;-32
2021/07/19 07:43:01;;;;;;;7.47;2.90;;;;;;;28.14;39.36;96896.16;5000435;28;20316;-31
2021/07/19 07:45:27;;;;;;;6.00;3.28;;;;;;;28.13;39.42;96890.97;4999598;28;20026;-32
2021/07/19 07:47:52;;;;;;;8.88;3.03;;;;;;;28.12;39.56;96891.94;5000099;28;20036;-32
2021/07/19 07:50:18;;;;;;;7.88;3.05;;;;;;;28.10;39.52;96889.38;4999884;28;20034;-29
2021/07/19 07:52:43;;;;;;;8.13;3.20;;;;;;;28.10;39.61;96889.38;5003052;28;20397;-29
2021/07/19 07:55:09;;;;;;;7.45;3.38;;;;;;;28.08;39.75;96900.94;5002496;28;20125;-30
2021/07/19 07:57:34;;;;;;;5.65;3.03;;;;;;;28.07;39.59;96897.47;5005696;28;20033;-31
2021/07/19 08:00:00;;;;;;;7.28;2.85;;;;;;;28.06;39.72;96898.41;5020456;28;20024;-29
2021/07/19 08:02:25;;;;;;;8.18;3.17;;;;;;;28.06;39.71;96901.03;5009078;28;20472;-30
2021/07/19 08:04:51;;;;;;;6.63;2.90;;;;;;;28.06;39.87;96897.59;5001583;28;20033;-28
2021/07/19 08:07:16;;;;;;;6.25;3.03;;;;;;;28.06;39.80;96893.13;5008319;28;20036;-32
2021/07/19 08:09:42;;;;;;;12.77;3.33;;;;;;;28.06;39.87;96882.59;5007107;28;20040;-29
2021/07/19 08:12:08;;;;;;;10.10;3.53;;;;;;;28.07;39.90;96892.19;5003656;28;20032;-31
2021/07/19 08:14:33;;;;;;;18.27;3.80;;;;;;;28.07;40.00;96884.28;5005402;28;20048;-31
2021/07/19 08:16:58;;;;;;;6.72;3.63;;;;;;;28.07;40.10;96880.81;4997887;28;20446;-29
2021/07/19 08:19:28;;;;;;;6.60;3.28;;;;;;;28.06;40.11;96893.13;5001824;28;20788;-29
2021/07/19 08:21:56;;;;;;;8.52;3.25;;;;;;;28.04;40.03;96890.59;5001703;28;20067;-30
2021/07/19 08:24:21;;;;;;;12.40;3.80;;;;;;;28.05;40.00;96883.56;5002356;28;21024;-30
2021/07/19 08:26:47;;;;;;;6.80;3.40;;;;;;;28.05;40.00;96886.19;4997257;28;20025;-30
2021/07/19 08:29:12;;;;;;;9.48;3.30;;;;;;;28.04;40.09;96884.50;4998346;28;20044;-30
2021/07/19 08:31:44;;;;;;;7.75;3.25;;;;;;;28.05;40.09;96883.56;5014818;28;20021;-31
2021/07/19 08:34:09;;;;;;;;;;;;;;;28.05;40.02;96880.91;5000531;28;20033;-30
2021/07/19 08:36:34;;;;;;;11.48;3.80;;;;;;;28.07;40.08;96878.19;4999566;28;19956;-30
2021/07/19 08:39:00;;;;;;;4.10;3.15;;;;;;;28.06;40.01;96884.41;4998793;28;20037;-31
2021/07/19 08:41:25;;;;;;;12.45;3.65;;;;;;;28.05;40.08;96880.91;5002603;28;20032;-34
2021/07/19 08:43:50;;;;;;;14.38;3.95;;;;;;;28.04;40.18;96873.97;5003313;28;20029;-31
2021/07/19 08:46:17;;;;;;;6.65;3.70;;;;;;;28.02;40.05;96881.94;5003318;28;20064;-30
2021/07/19 08:48:42;;;;;;;14.63;4.43;;;;;;;28.02;40.05;96886.38;5006683;28;20562;-30
2021/07/19 08:51:08;;;;;;;9.05;3.40;;;;;;;28.03;40.04;96877.50;5021971;28;20025;-33
2021/07/19 08:53:36;;;;;;;6.40;3.00;;;;;;;28.04;40.02;96879.22;4987410;28;20399;-29
2021/07/19 08:56:02;;;;;;;9.07;3.10;;;;;;;28.06;40.02;96879.13;5007908;28;20028;-29
2021/07/19 08:58:27;;;;;;;8.18;3.47;;;;;;;28.05;40.20;96875.66;4992764;28;20021;-31
2021/07/19 09:00:53;;;;;;;10.27;3.35;;;;;;;28.10;40.05;96875.38;5006917;28;20037;-31
2021/07/19 09:03:18;;;;;;;9.88;3.60;;;;;;;28.10;40.01;96881.47;5009569;28;20022;-32
2021/07/19 09:05:44;;;;;;;7.80;3.70;;;;;;;28.13;40.18;96872.53;5003956;28;20021;-34
2021/07/19 09:08:09;;;;;;;7.05;3.47;;;;;;;28.15;40.16;96870.66;5009120;28;20029;-31
2021/07/19 09:10:36;;;;;;;12.52;3.40;;;;;;;28.18;40.17;96881.00;5007405;28;20037;-30
2021/07/19 09:13:01;;;;;;;7.68;3.40;;;;;;;28.19;39.88;96866.91;5002200;28;20025;-32
2021/07/19 09:15:33;;;;;;;10.95;3.30;;;;;;;28.22;40.01;96873.78;5008437;28;20057;-29
2021/07/19 09:17:59;;;;;;;7.03;3.30;;;;;;;28.24;40.06;96875.38;5003789;28;20029;-31
2021/07/19 09:20:29;;;;;;;7.45;3.00;;;;;;;28.26;40.08;96872.66;5005487;28;20017;-29
2021/07/19 09:22:54;;;;;;;6.38;3.08;;;;;;;28.28;40.00;96870.78;5005317;28;20036;-29
2021/07/19 09:25:20;;;;;;;7.93;3.00;;;;;;;28.30;39.89;96874.19;5004858;28;20235;-31
2021/07/19 09:28:07;;;;;;;7.22;3.42;;;;;;;28.31;40.04;96865.31;5005679;28;20022;-31
2021/07/19 09:30:33;;;;;;;4.30;2.83;;;;;;;28.32;39.96;96872.28;5007985;28;20048;-28
2021/07/19 09:33:02;;;;;;;5.63;3.10;;;;;;;28.36;39.62;96868.50;5009725;28;20518;-28
2021/07/19 09:35:28;;;;;;;6.32;3.00;;;;;;;28.37;39.86;96864.94;5003653;28;20052;-31
2021/07/19 09:37:54;;;;;;;6.93;3.10;;;;;;;28.38;40.02;96865.78;5006393;28;20029;-29
2021/07/19 09:40:24;;;;;;;10.45;2.85;;;;;;;28.40;39.87;96872.66;5004529;28;20395;-31
2021/07/19 09:42:51;;;;;;;5.72;2.97;;;;;;;28.40;40.01;96862.09;5009057;28;20028;-30
2021/07/19 09:45:24;;;;;;;5.95;2.92;;;;;;;28.43;39.96;96859.28;5008225;28;20048;-30
2021/07/19 09:47:50;;;;;;;8.57;3.10;;;;;;;28.45;40.00;96867.06;5005934;28;20433;-29
2021/07/19 09:50:18;;;;;;;5.13;2.85;;;;;;;28.47;39.94;96866.97;5005078;28;20026;-30
2021/07/19 09:52:43;;;;;;;7.95;2.95;;;;;;;28.48;39.74;96860.75;4998324;28;20050;-31
2021/07/19 09:55:22;;;;;;;7.57;2.80;;;;;;;28.49;39.87;96862.47;5008605;28;20021;-32
2021/07/19 09:58:00;;;;;;;6.38;3.00;;;;;;;28.50;39.76;96864.16;5006747;28;20108;-29
2021/07/19 10:00:26;;;;;;;5.70;2.70;;;;;;;28.51;39.90;96868.47;5007578;28;20036;-31
2021/07/19 10:02:52;;;;;;;6.55;2.85;;;;;;;28.52;39.78;96864.88;5008170;28;20033;-34
2021/07/19 10:05:30;;;;;;;5.60;2.60;;;;;;;28.53;40.05;96863.97;5005762;28;20041;-29
2021/07/19 10:07:56;;;;;;;6.55;2.63;;;;;;;28.54;39.94;96855.09;5007124;28;20029;-29
2021/07/19 10:10:35;;;;;;;4.47;2.75;;;;;;;28.55;39.97;96851.53;5006179;28;20037;-30
2021/07/19 10:13:52;;;;;;;3.08;2.42;;;;;;;;;;5005403;28;20029;-30
2021/07/19 10:16:17;;;;;;;5.50;2.55;;;;;;;28.58;39.79;96842.56;5001781;28;20849;-29
2021/07/19 10:18:45;;;;;;;4.25;2.70;;;;;;;28.57;39.91;96841.75;5005110;28;20022;-30
2021/07/19 10:21:10;;;;;;;3.83;2.67;;;;;;;28.58;39.91;96835.53;5002874;28;20487;-30
2021/07/19 10:23:36;;;;;;;4.97;2.50;;;;;;;28.59;39.97;96846.88;5000137;28;20028;-30
2021/07/19 10:26:01;;;;;;;8.05;2.60;;;;;;;28.60;39.88;96835.44;5001622;28;20034;-30
2021/07/19 10:28:27;;;;;;;5.28;2.70;;;;;;;28.61;39.95;96835.34;5007387;28;20030;-30
2021/07/19 10:30:53;;;;;;;4.10;2.50;;;;;;;28.62;39.88;96837.00;5010047;28;20034;-31
2021/07/19 10:33:19;;;;;;;4.40;2.40;;;;;;;28.62;39.76;96834.38;4991048;28;20048;-28
2021/07/19 10:35:44;;;;;;;3.75;2.40;;;;;;;28.63;39.97;96830.78;5004278;28;20140;-29
2021/07/19 10:38:26;;;;;;;9.00;2.95;;;;;;;28.63;39.97;96830.78;5013756;28;20021;-30
2021/07/19 10:40:56;;;;;;;3.17;2.50;;;;;;;28.66;39.99;96829.75;5009939;28;20033;-30
2021/07/19 10:43:21;;;;;;;4.88;2.70;;;;;;;28.66;39.97;96827.97;4998767;28;20029;-30
2021/07/19 10:45:50;;;;;;;11.60;2.83;;;;;;;28.69;40.08;96830.38;5007368;28;20115;-29
2021/07/19 10:48:23;;;;;;;15.25;2.97;;;;;;;28.69;40.31;96819.84;5007989;28;20021;-31
2021/07/19 10:50:49;;;;;;;15.55;3.20;;;;;;;28.72;40.26;96820.59;5003013;28;20021;-30
2021/07/19 10:53:22;;;;;;;7.88;3.30;;;;;;;28.73;40.30;96827.56;5005599;28;20025;-29
2021/07/19 10:56:02;;;;;;;14.25;2.97;;;;;;;28.75;40.31;96820.41;5004736;28;20107;-30
2021/07/19 10:58:45;;;;;;;38.97;4.95;;;;;;;28.76;40.23;96816.81;5010687;28;20030;-30
2021/07/19 11:01:27;;;;;;;68.32;5.00;;;;;;;28.78;40.33;96822.81;5008794;28;20029;-30
2021/07/19 11:03:52;;;;;;;;;;;;;;;28.80;40.55;96818.31;5010748;28;20035;-29
2021/07/19 11:06:30;;;;;;;34.80;3.50;;;;;;;28.82;40.58;96821.69;5009367;28;20403;-31
2021/07/19 11:08:55;;;;;;;17.23;3.40;;;;;;;28.83;40.53;96818.09;5005898;28;20100;-31
2021/07/19 11:11:34;;;;;;;18.38;3.90;;;;;;;28.84;40.49;96819.81;5004989;28;20021;-29
2021/07/19 11:14:04;;;;;;;13.10;3.33;;;;;;;28.85;40.67;96816.22;5006898;28;20029;-30
2021/07/19 11:16:52;;;;;;;17.83;3.75;;;;;;;28.87;40.51;96816.13;5011398;28;20500;-28
2021/07/19 11:19:35;;;;;;;18.98;3.25;;;;;;;28.88;40.91;96816.03;5009028;28;20413;-30
2021/07/19 11:22:23;;;;;;;11.32;3.58;;;;;;;28.89;40.66;96816.84;5006603;28;20034;-29
2021/07/19 11:25:10;;;;;;;12.70;3.17;;;;;;;28.90;40.67;96819.41;5004291;28;20033;-31
2021/07/19 11:27:40;;;;;;;17.17;3.22;;;;;;;28.92;40.60;96814.06;5006077;28;20041;-29
2021/07/19 11:30:22;;;;;;;10.60;3.30;;;;;;;28.93;40.43;96808.69;5008781;28;20030;-31
2021/07/19 11:32:48;;;;;;;8.20;3.03;;;;;;;28.93;40.54;96798.13;5009764;28;20475;-29
2021/07/19 11:35:14;;;;;;;15.23;3.10;;;;;;;28.94;40.41;96798.94;5003848;28;20026;-29